Time;durP1;ratioP1;P1;durP2;ratioP2;P2;SDS_P1;SDS_P2;PMS_P1;PMS_P2;Temp;Humidity;BMP_temperature;BMP_pressure;BME280_temperature;BME280_humidity;BME280_pressure;Samples;Min_cycle;Max_cycle;Signal;HPM_P1;HPM_P2
2022/11/19 00:00:52;;;;;;;13.55;9.30;;;1.80;99.90;;;;;;5069678;28;20041;-63
2022/11/19 00:03:20;;;;;;;14.02;9.60;;;1.80;99.90;;;;;;5070907;28;20117;-63
2022/11/19 00:05:48;;;;;;;14.32;10.00;;;1.80;99.90;;;;;;5069926;28;20086;-63
2022/11/19 00:08:18;;;;;;;17.40;9.73;;;1.90;99.90;;;;;;5070950;28;20048;-63
2022/11/19 00:10:45;;;;;;;16.48;10.02;;;1.90;99.90;;;;;;5068902;28;20409;-63
2022/11/19 00:13:13;;;;;;;16.17;9.95;;;1.90;99.90;;;;;;5068880;28;20521;-63
2022/11/19 00:15:39;;;;;;;16.13;9.38;;;1.90;99.90;;;;;;5048922;28;20063;-63
2022/11/19 00:18:05;;;;;;;14.32;8.88;;;1.80;99.90;;;;;;5070377;28;20033;-63
2022/11/19 00:20:32;;;;;;;15.18;9.23;;;1.90;99.90;;;;;;5069338;28;20044;-63
2022/11/19 00:22:58;;;;;;;12.95;8.52;;;1.90;99.90;;;;;;5070699;28;20036;-63
2022/11/19 00:25:26;;;;;;;16.05;9.77;;;1.90;99.90;;;;;;5067564;28;20110;-63
2022/11/19 00:27:51;;;;;;;15.48;8.57;;;1.90;99.90;;;;;;5055896;28;20047;-63
2022/11/19 00:30:18;;;;;;;14.30;9.43;;;1.80;99.90;;;;;;5063360;28;20398;-63
2022/11/19 00:32:44;;;;;;;14.60;8.95;;;1.80;99.90;;;;;;5048053;28;20044;-63
2022/11/19 00:35:10;;;;;;;12.95;8.15;;;1.80;99.90;;;;;;5070113;28;20117;-63
2022/11/19 00:37:35;;;;;;;13.30;8.40;;;1.80;99.90;;;;;;5071024;28;20086;-63
2022/11/19 00:40:01;;;;;;;12.70;7.90;;;1.80;99.90;;;;;;5072601;28;20036;-62
2022/11/19 00:42:27;;;;;;;11.55;7.63;;;1.80;99.90;;;;;;5074023;28;20036;-63
2022/11/19 00:44:53;;;;;;;12.30;7.82;;;1.80;99.90;;;;;;5073174;28;20501;-64
2022/11/19 00:47:18;;;;;;;11.60;7.30;;;1.80;99.90;;;;;;5072344;28;20052;-63
2022/11/19 00:49:44;;;;;;;11.90;7.70;;;1.80;99.90;;;;;;5073106;28;20036;-63
2022/11/19 00:52:10;;;;;;;10.70;6.55;;;1.80;99.90;;;;;;5073960;28;20115;-63
2022/11/19 00:54:35;;;;;;;10.77;7.10;;;1.80;99.90;;;;;;5055104;28;20044;-63
2022/11/19 00:57:01;;;;;;;13.35;7.32;;;1.80;99.90;;;;;;5055775;28;20055;-63
2022/11/19 00:59:27;;;;;;;9.70;5.70;;;1.70;99.90;;;;;;5074078;28;20044;-63
2022/11/19 01:01:52;;;;;;;8.68;5.80;;;1.70;99.90;;;;;;5073723;28;20402;-63
2022/11/19 01:04:18;;;;;;;12.23;6.82;;;1.70;99.90;;;;;;5073137;28;20041;-63
2022/11/19 01:06:43;;;;;;;8.98;6.10;;;1.70;99.90;;;;;;5072555;28;20040;-64
2022/11/19 01:09:09;;;;;;;8.63;6.05;;;1.70;99.90;;;;;;5072604;28;20037;-63
2022/11/19 01:11:36;;;;;;;9.57;5.45;;;1.70;99.90;;;;;;5074159;28;20041;-63
2022/11/19 01:14:03;;;;;;;9.48;5.32;;;1.70;99.90;;;;;;5070861;28;20097;-64
2022/11/19 01:16:37;;;;;;;8.45;5.50;;;1.70;99.90;;;;;;5054087;28;20032;-63
2022/11/19 01:19:04;;;;;;;8.77;5.30;;;1.70;99.90;;;;;;5056212;28;20413;-63
2022/11/19 01:21:32;;;;;;;8.80;5.18;;;1.60;99.90;;;;;;5074188;28;20032;-63
2022/11/19 01:23:58;;;;;;;6.65;4.78;;;1.60;99.90;;;;;;5070026;28;20043;-64
2022/11/19 01:26:23;;;;;;;8.63;5.68;;;1.60;99.90;;;;;;5071606;28;20406;-64
2022/11/19 01:28:49;;;;;;;7.85;5.07;;;1.60;99.90;;;;;;5079479;28;20036;-63
2022/11/19 01:31:17;;;;;;;7.90;4.95;;;1.60;99.90;;;;;;5072425;28;20125;-63
2022/11/19 01:33:43;;;;;;;6.72;4.80;;;1.60;99.90;;;;;;5073338;28;20048;-64
2022/11/19 01:36:29;;;;;;;7.80;5.05;;;1.60;99.90;;;;;;5070525;28;20039;-63
2022/11/19 01:38:56;;;;;;;7.90;4.60;;;1.50;99.90;;;;;;5070872;28;20040;-63
2022/11/19 01:41:27;;;;;;;8.48;5.13;;;1.50;99.90;;;;;;5059681;28;20033;-63
2022/11/19 01:43:55;;;;;;;;;;;1.50;99.90;;;;;;5058534;28;20036;-64
2022/11/19 01:46:23;;;;;;;7.35;4.72;;;1.40;99.90;;;;;;5072801;28;19924;-63
2022/11/19 01:48:56;;;;;;;6.25;4.30;;;1.40;99.90;;;;;;5071644;28;20029;-63
2022/11/19 01:51:33;;;;;;;7.60;5.05;;;1.40;99.90;;;;;;5071944;28;20047;-63
2022/11/19 01:54:03;;;;;;;8.10;5.20;;;1.30;99.90;;;;;;5065511;28;20143;-63
2022/11/19 01:56:30;;;;;;;6.45;4.65;;;1.30;99.90;;;;;;5072071;28;20125;-63
2022/11/19 01:59:03;;;;;;;8.27;5.28;;;1.30;99.90;;;;;;5072921;28;20064;-63
2022/11/19 02:01:30;;;;;;;8.30;5.20;;;1.30;99.90;;;;;;5072399;28;20094;-63
2022/11/19 02:03:59;;;;;;;7.20;4.95;;;1.20;99.90;;;;;;5066790;28;20047;-63
2022/11/19 02:06:27;;;;;;;6.13;4.40;;;1.30;99.90;;;;;;5066388;28;20489;-63
2022/11/19 02:08:52;;;;;;;8.20;4.95;;;1.20;99.90;;;;;;5071438;28;20037;-63
2022/11/19 02:11:40;;;;;;;6.50;5.15;;;1.20;99.90;;;;;;5071850;28;20406;-63
2022/11/19 02:14:21;;;;;;;9.10;4.90;;;1.20;99.90;;;;;;5065092;28;20128;-63
2022/11/19 02:17:20;;;;;;;7.30;4.75;;;1.20;99.90;;;;;;5070529;28;20036;-63
2022/11/19 02:20:07;;;;;;;7.85;5.28;;;1.20;99.90;;;;;;5071543;28;20041;-63
2022/11/19 02:23:09;;;;;;;7.68;4.93;;;1.10;99.90;;;;;;5071764;28;20036;-63
2022/11/19 02:25:37;;;;;;;7.53;4.97;;;1.10;99.90;;;;;;5070761;28;20469;-63
2022/11/19 02:28:22;;;;;;;7.05;4.95;;;1.10;99.90;;;;;;5068100;28;20123;-63
2022/11/19 02:30:52;;;;;;;7.93;5.30;;;1.10;99.90;;;;;;5071056;28;20493;-63
2022/11/19 02:33:41;;;;;;;7.10;4.93;;;1.00;99.90;;;;;;5071315;28;20032;-63
2022/11/19 02:36:30;;;;;;;9.25;5.25;;;1.00;99.90;;;;;;5068428;28;20037;-63
2022/11/19 02:39:19;;;;;;;7.95;5.47;;;1.00;99.90;;;;;;5071711;28;20451;-63
2022/11/19 02:41:58;;;;;;;7.93;5.13;;;0.90;99.90;;;;;;5052515;28;20049;-63
2022/11/19 02:44:58;;;;;;;7.50;5.43;;;0.90;99.90;;;;;;5071209;28;20127;-64
2022/11/19 02:47:35;;;;;;;8.73;5.18;;;0.90;99.90;;;;;;5060005;28;20072;-63
2022/11/19 02:50:18;;;;;;;8.95;5.43;;;0.80;99.90;;;;;;5071282;28;20043;-63
2022/11/19 02:52:45;;;;;;;8.10;5.45;;;0.80;99.90;;;;;;5070444;28;20044;-63
2022/11/19 02:55:16;;;;;;;10.05;5.97;;;0.80;99.90;;;;;;5070335;28;20119;-64
2022/11/19 02:57:48;;;;;;;6.35;4.38;;;0.80;99.90;;;;;;5071610;28;20052;-63
2022/11/19 03:06:04;;;;;;;8.13;5.13;;;0.70;99.90;;;;;;5066972;28;20121;-63
2022/11/19 03:08:29;;;;;;;10.02;5.47;;;0.60;99.90;;;;;;5069591;28;20040;-63
2022/11/19 03:11:14;;;;;;;7.97;5.65;;;0.70;99.90;;;;;;5072444;28;20025;-63
2022/11/19 03:16:55;;;;;;;8.52;5.55;;;0.60;99.90;;;;;;5069656;28;20048;-64
2022/11/19 03:19:39;;;;;;;8.88;5.65;;;0.60;99.90;;;;;;5067475;28;20086;-63
2022/11/19 03:22:11;;;;;;;9.32;5.93;;;0.50;99.90;;;;;;5070877;28;20048;-63
2022/11/19 03:24:43;;;;;;;8.38;5.47;;;0.50;99.90;;;;;;5069225;28;20490;-63
2022/11/19 03:27:22;;;;;;;8.40;5.53;;;0.50;99.90;;;;;;5069769;28;20047;-63
2022/11/19 03:29:52;;;;;;;9.23;4.68;;;0.50;99.90;;;;;;5070731;28;20036;-64
2022/11/19 03:32:22;;;;;;;9.10;5.20;;;0.50;99.90;;;;;;5071321;28;20044;-63
2022/11/19 03:34:55;;;;;;;8.30;5.40;;;0.50;99.90;;;;;;5070742;28;20055;-64
2022/11/19 03:37:23;;;;;;;7.55;5.32;;;0.50;99.90;;;;;;5069316;28;20047;-64
2022/11/19 03:39:51;;;;;;;8.70;5.22;;;0.50;99.90;;;;;;5069837;28;20068;-64
2022/11/19 03:42:19;;;;;;;6.93;5.05;;;0.40;99.90;;;;;;5071134;28;20049;-63
2022/11/19 03:44:48;;;;;;;9.20;5.22;;;0.40;99.90;;;;;;5068294;28;20039;-64
2022/11/19 03:47:18;;;;;;;9.00;5.47;;;0.40;99.90;;;;;;5069815;28;20040;-64
2022/11/19 03:49:47;;;;;;;6.90;4.57;;;0.40;99.90;;;;;;5070539;28;20037;-64
2022/11/19 03:52:13;;;;;;;8.35;5.78;;;0.40;99.90;;;;;;5070818;28;20044;-64
2022/11/19 03:54:41;;;;;;;8.02;5.10;;;0.40;99.90;;;;;;5069604;28;20413;-64
2022/11/19 03:57:09;;;;;;;7.60;5.50;;;0.40;99.90;;;;;;5070346;28;20079;-64
2022/11/19 03:59:35;;;;;;;7.53;4.85;;;0.30;99.90;;;;;;5069988;28;20032;-63
2022/11/19 04:02:05;;;;;;;8.40;5.40;;;0.30;99.90;;;;;;5088087;22;20036;-68
2022/11/19 04:04:36;;;;;;;8.95;4.97;;;0.30;99.90;;;;;;5104143;28;20043;-68
2022/11/19 04:07:21;;;;;;;9.05;5.00;;;0.30;99.90;;;;;;5110614;28;20031;-69
2022/11/19 04:09:47;;;;;;;7.95;5.20;;;0.30;99.90;;;;;;5112670;28;20156;-68
2022/11/19 04:12:21;;;;;;;6.93;5.15;;;0.30;99.90;;;;;;5109824;28;20058;-68
2022/11/19 04:14:47;;;;;;;8.00;5.20;;;0.30;99.90;;;;;;5108813;28;20097;-69
2022/11/19 04:17:13;;;;;;;8.05;5.03;;;0.20;99.90;;;;;;5109256;28;20039;-68
2022/11/19 04:19:39;;;;;;;6.45;4.30;;;0.20;99.90;;;;;;5111991;28;20181;-68
2022/11/19 04:22:05;;;;;;;8.48;4.82;;;0.20;99.90;;;;;;5109771;28;20596;-68
2022/11/19 04:24:30;;;;;;;8.88;5.22;;;0.20;99.90;;;;;;5110519;28;20088;-68
2022/11/19 04:26:56;;;;;;;7.28;5.15;;;0.20;99.90;;;;;;5117019;28;20039;-68
2022/11/19 04:29:22;;;;;;;8.45;5.55;;;0.20;99.90;;;;;;5117815;28;20043;-68
2022/11/19 04:31:47;;;;;;;8.13;5.07;;;0.10;99.90;;;;;;5111912;28;20039;-68
2022/11/19 04:34:13;;;;;;;8.38;4.93;;;0.10;99.90;;;;;;5109563;28;20306;-68
2022/11/19 04:36:40;;;;;;;7.47;5.05;;;0.10;99.90;;;;;;5115439;28;20431;-69
2022/11/19 04:39:07;;;;;;;7.20;5.05;;;0.10;99.90;;;;;;5113605;27;20115;-68
2022/11/19 04:41:33;;;;;;;9.45;5.78;;;0.10;99.90;;;;;;5110943;28;20047;-68
2022/11/19 04:43:59;;;;;;;8.25;5.30;;;0.10;99.90;;;;;;5110021;28;20031;-69
2022/11/19 04:46:24;;;;;;;9.10;6.38;;;0.10;99.90;;;;;;5109379;28;20512;-68
2022/11/19 04:48:50;;;;;;;6.38;4.72;;;0.10;99.90;;;;;;5114610;28;20054;-69
2022/11/19 04:51:16;;;;;;;9.00;5.47;;;0.10;99.90;;;;;;5110983;28;20550;-68
2022/11/19 04:53:41;;;;;;;8.32;5.22;;;0.00;99.90;;;;;;5109944;28;20036;-68
2022/11/19 04:56:07;;;;;;;8.40;5.82;;;0.00;99.90;;;;;;5106684;28;20434;-68
2022/11/19 04:58:33;;;;;;;10.15;5.82;;;0.00;99.90;;;;;;5110085;28;20564;-69
2022/11/19 05:00:58;;;;;;;8.80;5.05;;;0.00;99.90;;;;;;5105397;28;20073;-68
2022/11/19 05:03:24;;;;;;;7.35;4.68;;;0.00;99.90;;;;;;5105231;28;20097;-69
2022/11/19 05:05:49;;;;;;;9.32;5.60;;;0.00;99.90;;;;;;5108429;28;20062;-69
2022/11/19 05:08:15;;;;;;;8.77;5.75;;;0.00;99.90;;;;;;5103374;28;20512;-69
2022/11/19 05:10:42;;;;;;;8.80;5.10;;;0.00;99.90;;;;;;5114913;28;20464;-69
2022/11/19 05:13:08;;;;;;;8.50;5.80;;;-0.10;99.90;;;;;;5109425;28;20114;-69
2022/11/19 05:15:34;;;;;;;7.93;5.70;;;-0.10;99.90;;;;;;5109852;28;20118;-69
2022/11/19 05:18:00;;;;;;;9.13;5.65;;;0.00;99.90;;;;;;5118825;27;20023;-68
2022/11/19 05:20:25;;;;;;;8.70;5.80;;;-0.10;99.90;;;;;;5116813;27;20043;-69
2022/11/19 05:22:51;;;;;;;8.77;5.30;;;-0.10;99.90;;;;;;5113773;28;20036;-69
2022/11/19 05:25:17;;;;;;;8.45;5.93;;;-0.10;99.90;;;;;;5121397;27;20030;-69
2022/11/19 05:27:43;;;;;;;7.43;5.05;;;-0.10;99.90;;;;;;5114195;27;20110;-68
2022/11/19 05:30:09;;;;;;;10.90;6.20;;;-0.20;99.90;;;;;;5113102;28;20039;-69
2022/11/19 05:32:35;;;;;;;9.77;5.75;;;-0.20;99.90;;;;;;5114989;28;20044;-68
2022/11/19 05:35:02;;;;;;;9.25;6.40;;;-0.20;99.90;;;;;;5110288;28;20085;-68
2022/11/19 05:37:27;;;;;;;10.30;6.38;;;-0.20;99.90;;;;;;5111335;28;20062;-69
2022/11/19 05:39:53;;;;;;;8.60;6.20;;;-0.20;99.90;;;;;;5122830;27;20043;-69
2022/11/19 05:42:18;;;;;;;8.45;6.07;;;-0.20;99.90;;;;;;5113688;28;20039;-69
2022/11/19 05:44:44;;;;;;;10.15;6.15;;;-0.20;99.90;;;;;;5112690;28;20036;-69
2022/11/19 05:47:10;;;;;;;10.95;6.35;;;-0.20;99.90;;;;;;5113393;28;20572;-69
2022/11/19 05:49:35;;;;;;;10.05;6.28;;;-0.20;99.90;;;;;;5120026;27;20119;-68
2022/11/19 05:52:01;;;;;;;11.40;6.30;;;-0.30;99.90;;;;;;5112171;28;20031;-69
2022/11/19 05:54:26;;;;;;;10.48;6.32;;;-0.30;99.90;;;;;;5112064;28;20597;-68
2022/11/19 05:56:52;;;;;;;12.52;6.82;;;-0.30;99.90;;;;;;5110915;28;20112;-69
2022/11/19 05:59:19;;;;;;;10.60;6.07;;;-0.30;99.90;;;;;;5113266;28;20054;-69
2022/11/19 06:01:44;;;;;;;10.50;6.75;;;-0.30;99.90;;;;;;5111614;28;20035;-69
2022/11/19 06:04:10;;;;;;;12.05;6.60;;;-0.30;99.90;;;;;;5113345;28;20477;-69
2022/11/19 06:06:36;;;;;;;11.75;6.93;;;-0.30;99.90;;;;;;5111643;28;20077;-69
2022/11/19 06:09:02;;;;;;;11.65;7.45;;;-0.40;99.90;;;;;;5106663;28;20103;-69
2022/11/19 06:14:16;;;;;;;12.45;7.78;;;-0.40;99.90;;;;;;5110946;28;20054;-69
2022/11/19 06:16:42;;;;;;;13.27;7.65;;;-0.40;99.90;;;;;;5110804;28;20040;-69
2022/11/19 06:19:08;;;;;;;11.57;7.35;;;-0.40;99.90;;;;;;5109431;28;20397;-69
2022/11/19 06:21:33;;;;;;;14.38;8.20;;;-0.50;99.90;;;;;;5113312;28;20075;-69
2022/11/19 06:23:59;;;;;;;13.38;7.93;;;-0.40;99.90;;;;;;5113316;28;20078;-69
2022/11/19 06:26:27;;;;;;;13.55;7.90;;;-0.50;99.90;;;;;;5104879;28;20568;-69
2022/11/19 06:28:53;;;;;;;12.73;8.02;;;-0.50;99.90;;;;;;5101674;28;20039;-69
2022/11/19 06:31:20;;;;;;;12.98;7.45;;;-0.50;99.90;;;;;;5104288;28;20047;-70
2022/11/19 06:33:45;;;;;;;13.30;7.90;;;-0.50;99.90;;;;;;5111913;28;20035;-70
2022/11/19 06:36:11;;;;;;;15.25;8.68;;;-0.50;99.90;;;;;;5120782;27;20039;-70
2022/11/19 06:38:37;;;;;;;14.25;8.50;;;-0.50;99.90;;;;;;5122558;27;20036;-70
2022/11/19 06:41:02;;;;;;;14.77;9.48;;;-0.50;99.90;;;;;;5118281;27;20079;-69
2022/11/19 06:43:28;;;;;;;15.35;9.35;;;-0.50;99.90;;;;;;5112604;28;20063;-70
2022/11/19 06:45:54;;;;;;;13.20;8.13;;;-0.50;99.90;;;;;;5110187;28;20079;-69
2022/11/19 06:48:20;;;;;;;13.80;8.73;;;-0.60;99.90;;;;;;5120951;27;20053;-70
2022/11/19 06:50:45;;;;;;;16.42;8.93;;;-0.60;99.90;;;;;;5113896;27;20136;-70
2022/11/19 06:53:11;;;;;;;16.27;9.00;;;-0.60;99.90;;;;;;5113546;28;20433;-70
2022/11/19 06:55:37;;;;;;;15.20;9.65;;;-0.60;99.90;;;;;;5112687;27;20409;-69
2022/11/19 06:58:03;;;;;;;14.60;8.82;;;-0.60;99.90;;;;;;5103333;28;20078;-70
2022/11/19 07:00:29;;;;;;;17.98;9.52;;;-0.60;99.90;;;;;;5119741;27;20518;-69
2022/11/19 07:02:55;;;;;;;11.73;8.10;;;-0.60;99.90;;;;;;5107182;28;20034;-69
2022/11/19 07:05:20;;;;;;;13.82;8.57;;;-0.60;99.90;;;;;;5117350;27;20031;-70
2022/11/19 07:07:46;;;;;;;13.93;8.23;;;-0.60;99.90;;;;;;5119751;27;20097;-69
2022/11/19 07:10:11;;;;;;;14.43;8.65;;;-0.70;99.90;;;;;;5109090;28;20035;-69
2022/11/19 07:12:37;;;;;;;16.70;9.05;;;-0.70;99.90;;;;;;5103472;28;20109;-69
2022/11/19 07:15:03;;;;;;;15.57;9.23;;;-0.60;99.90;;;;;;5113573;27;20407;-70
2022/11/19 07:17:29;;;;;;;14.93;9.20;;;-0.60;99.90;;;;;;5116126;27;20031;-70
2022/11/19 07:19:54;;;;;;;13.85;9.07;;;-0.60;99.90;;;;;;5122777;27;20446;-69
2022/11/19 07:22:20;;;;;;;12.32;8.63;;;-0.60;99.90;;;;;;5098606;28;20111;-70
2022/11/19 07:24:45;;;;;;;13.45;8.70;;;-0.60;99.90;;;;;;5100464;28;20061;-69
2022/11/19 07:27:11;;;;;;;13.40;8.30;;;-0.70;99.90;;;;;;5102481;28;20527;-69
2022/11/19 07:29:37;;;;;;;12.63;8.20;;;-0.70;99.90;;;;;;5106969;28;20512;-69
2022/11/19 07:32:04;;;;;;;14.27;8.77;;;-0.60;99.90;;;;;;5110909;28;20106;-69
2022/11/19 07:34:29;;;;;;;12.20;7.63;;;-0.60;99.90;;;;;;5109142;28;20075;-69
2022/11/19 07:36:55;;;;;;;13.40;8.40;;;-0.60;99.90;;;;;;5110771;27;20071;-70
2022/11/19 07:39:20;;;;;;;15.60;9.07;;;-0.60;99.90;;;;;;5119750;27;20050;-69
2022/11/19 07:44:30;;;;;;;12.55;8.50;;;-0.60;99.90;;;;;;5116569;27;20042;-69
2022/11/19 07:46:56;;;;;;;13.77;8.65;;;-0.60;99.90;;;;;;5100138;28;20039;-69
2022/11/19 07:49:21;;;;;;;16.05;8.35;;;-0.60;99.90;;;;;;5107664;28;20035;-69
2022/11/19 07:51:47;;;;;;;14.38;9.05;;;-0.50;99.90;;;;;;5107627;28;20054;-69
2022/11/19 07:54:13;;;;;;;15.38;8.75;;;-0.50;99.90;;;;;;5102476;28;20055;-69
2022/11/19 07:56:39;;;;;;;13.98;8.63;;;-0.50;99.90;;;;;;5103599;28;20035;-69
2022/11/19 07:59:04;;;;;;;13.55;8.57;;;-0.50;99.90;;;;;;5106747;28;20039;-69
2022/11/19 08:01:30;;;;;;;14.07;8.32;;;-0.50;99.90;;;;;;5105747;28;20039;-68
2022/11/19 08:03:56;;;;;;;13.43;8.10;;;-0.50;99.90;;;;;;5107295;28;20034;-69
2022/11/19 08:06:23;;;;;;;14.55;8.30;;;-0.40;99.90;;;;;;5107696;28;20036;-69
2022/11/19 08:08:49;;;;;;;14.52;8.40;;;-0.40;99.90;;;;;;5112101;28;20031;-69
2022/11/19 08:11:16;;;;;;;12.98;8.18;;;-0.40;99.90;;;;;;5110022;28;20071;-69
2022/11/19 08:13:42;;;;;;;15.15;8.10;;;-0.30;99.90;;;;;;5110958;28;20520;-69
2022/11/19 08:18:10;;;;;;;14.35;8.60;;;-0.30;99.90;;;;;;5104920;28;20043;-69
2022/11/19 08:19:03;;;;;;;13.35;8.88;;;-0.30;99.90;;;;;;5096988;28;20119;-69
2022/11/19 08:21:28;;;;;;;12.00;8.13;;;-0.20;99.90;;;;;;5107327;28;20515;-69
2022/11/19 08:23:54;;;;;;;14.38;8.30;;;-0.20;99.90;;;;;;5100730;28;20116;-69
2022/11/19 08:26:19;;;;;;;13.95;8.52;;;-0.20;99.90;;;;;;5102745;28;20499;-69
2022/11/19 08:28:45;;;;;;;13.30;8.48;;;-0.10;99.90;;;;;;5108461;28;20112;-69
2022/11/19 08:31:11;;;;;;;12.75;8.18;;;0.00;99.90;;;;;;5101902;28;20039;-69
2022/11/19 08:33:36;;;;;;;12.70;7.35;;;0.00;99.90;;;;;;5106786;28;20096;-69
2022/11/19 08:36:02;;;;;;;12.75;8.38;;;0.00;99.90;;;;;;5105450;28;20046;-69
2022/11/19 08:38:28;;;;;;;12.25;7.60;;;0.10;99.90;;;;;;5108058;28;20039;-69
2022/11/19 08:42:58;;;;;;;12.13;8.35;;;0.10;99.90;;;;;;5108545;28;20032;-68
2022/11/19 08:43:40;;;;;;;12.40;7.70;;;0.20;99.90;;;;;;5107438;28;20473;-69
2022/11/19 08:46:06;;;;;;;11.60;7.95;;;0.30;99.90;;;;;;5110275;28;20059;-69
2022/11/19 08:48:32;;;;;;;12.23;8.20;;;0.30;99.90;;;;;;5125281;28;20063;-69
2022/11/19 08:50:58;;;;;;;12.15;7.85;;;0.40;99.90;;;;;;5107494;27;20468;-69
2022/11/19 08:53:23;;;;;;;14.70;8.00;;;0.50;99.90;;;;;;5106897;28;20059;-68
2022/11/19 08:55:52;;;;;;;12.45;7.93;;;0.50;99.90;;;;;;5108478;28;20050;-69
2022/11/19 08:58:17;;;;;;;13.07;7.93;;;0.60;99.90;;;;;;5107295;28;20122;-69
2022/11/19 09:00:43;;;;;;;14.70;7.70;;;0.70;99.90;;;;;;5109805;28;20139;-69
2022/11/19 09:03:08;;;;;;;12.13;8.13;;;0.80;99.90;;;;;;5112082;28;20062;-70
2022/11/19 09:05:34;;;;;;;13.00;8.57;;;0.90;99.90;;;;;;5109542;28;20053;-69
2022/11/19 09:07:59;;;;;;;12.80;7.90;;;1.00;99.90;;;;;;5119771;27;20241;-68
2022/11/19 09:10:25;;;;;;;13.10;7.55;;;1.00;99.90;;;;;;5129395;27;20040;-68
2022/11/19 09:12:52;;;;;;;12.07;8.07;;;1.00;99.90;;;;;;5113128;28;20032;-68
2022/11/19 09:15:18;;;;;;;13.07;8.30;;;1.10;99.90;;;;;;5111274;28;20047;-68
2022/11/19 09:17:44;;;;;;;13.48;7.82;;;1.20;99.90;;;;;;5116116;27;20094;-69
2022/11/19 09:20:10;;;;;;;16.08;8.35;;;1.20;99.90;;;;;;5110188;28;20505;-68
2022/11/19 09:22:36;;;;;;;13.77;8.18;;;1.30;99.90;;;;;;5114194;28;20035;-68
2022/11/19 09:25:02;;;;;;;11.88;8.02;;;1.30;99.90;;;;;;5111036;28;20028;-68
2022/11/19 09:27:27;;;;;;;13.95;8.60;;;1.30;99.90;;;;;;5114175;28;20040;-68
2022/11/19 09:29:53;;;;;;;13.70;8.95;;;1.40;99.90;;;;;;5114348;27;20031;-67
2022/11/19 09:32:19;;;;;;;14.40;8.23;;;1.50;99.90;;;;;;5113270;28;20046;-67
2022/11/19 09:34:44;;;;;;;10.68;7.50;;;1.50;99.90;;;;;;5111224;28;20397;-68
2022/11/19 09:37:10;;;;;;;14.43;9.25;;;1.50;99.90;;;;;;5113235;28;20051;-69
2022/11/19 09:39:36;;;;;;;11.68;8.05;;;1.60;99.90;;;;;;5108475;28;20035;-69
2022/11/19 09:42:30;;;;;;;13.98;9.10;;;1.60;99.90;;;;;;5107997;28;20473;-70
2022/11/19 09:45:20;;;;;;;11.40;8.00;;;1.70;99.90;;;;;;5108741;28;20028;-68
2022/11/19 09:47:59;;;;;;;13.23;7.25;;;1.70;99.90;;;;;;5113846;28;20039;-69
2022/11/19 09:50:31;;;;;;;13.85;7.85;;;1.70;99.90;;;;;;5112935;28;20123;-69
2022/11/19 09:53:04;;;;;;;12.68;7.57;;;1.60;99.90;;;;;;5105141;28;20095;-69
2022/11/19 09:55:32;;;;;;;12.55;8.13;;;1.60;99.90;;;;;;5113112;28;20102;-69
2022/11/19 09:57:58;;;;;;;13.43;8.07;;;1.60;99.90;;;;;;5106453;28;20107;-68
2022/11/19 10:00:28;;;;;;;13.63;7.97;;;1.60;99.90;;;;;;5106991;28;20055;-68
2022/11/19 10:02:55;;;;;;;13.68;8.35;;;1.70;99.90;;;;;;5112535;22;20758;-64
2022/11/19 10:05:40;;;;;;;13.75;8.43;;;1.70;99.90;;;;;;5086417;28;20128;-64
2022/11/19 10:08:27;;;;;;;13.95;8.20;;;1.70;99.90;;;;;;5085398;28;20044;-64
2022/11/19 10:11:12;;;;;;;11.70;7.95;;;1.80;99.90;;;;;;5082772;28;20040;-64
2022/11/19 10:13:57;;;;;;;12.98;8.13;;;1.90;99.90;;;;;;5098230;28;20062;-64
2022/11/19 10:16:31;;;;;;;13.02;8.80;;;1.90;99.90;;;;;;5105420;28;20036;-66
2022/11/19 10:19:24;;;;;;;12.13;7.53;;;1.90;99.90;;;;;;5107615;27;20032;-64
2022/11/19 10:22:07;;;;;;;12.05;7.80;;;2.00;99.90;;;;;;5105896;28;20071;-63
2022/11/19 10:24:42;;;;;;;11.30;7.57;;;2.00;99.90;;;;;;5104546;28;20046;-63
2022/11/19 10:27:24;;;;;;;10.23;6.57;;;2.10;99.90;;;;;;5099007;28;20110;-63
2022/11/19 10:29:53;;;;;;;9.95;6.72;;;2.10;99.90;;;;;;5105443;28;20396;-63
2022/11/19 10:32:22;;;;;;;10.85;7.30;;;2.10;99.90;;;;;;5118298;27;20031;-63
2022/11/19 10:34:51;;;;;;;12.20;7.60;;;2.10;99.90;;;;;;5108195;28;20043;-64
2022/11/19 10:37:20;;;;;;;9.57;6.63;;;2.10;99.90;;;;;;5082932;28;20047;-63
2022/11/19 10:39:55;;;;;;;12.98;7.75;;;2.10;99.90;;;;;;5087934;28;20045;-63
2022/11/19 10:42:27;;;;;;;9.73;6.85;;;2.10;99.90;;;;;;5104331;28;20530;-63
2022/11/19 10:44:58;;;;;;;10.05;6.70;;;2.10;99.90;;;;;;5095319;27;20476;-63
2022/11/19 10:47:46;;;;;;;9.40;6.97;;;2.10;99.90;;;;;;5112792;27;20028;-63
2022/11/19 10:50:20;;;;;;;11.15;7.00;;;2.20;99.90;;;;;;5088281;28;20097;-63
2022/11/19 10:53:15;;;;;;;9.45;7.25;;;2.30;99.90;;;;;;5080290;28;20052;-63
2022/11/19 10:55:47;;;;;;;9.88;7.05;;;2.30;99.90;;;;;;5097831;28;20088;-63
2022/11/19 10:58:36;;;;;;;9.88;6.50;;;2.30;99.90;;;;;;5102535;28;20036;-63
2022/11/19 11:01:11;;;;;;;9.13;6.18;;;2.40;99.90;;;;;;5103124;28;20100;-63
2022/11/19 11:03:53;;;;;;;10.32;6.13;;;2.40;99.90;;;;;;5104464;27;20051;-63
2022/11/19 11:06:19;;;;;;;6.88;5.05;;;2.40;99.90;;;;;;5108198;28;20212;-63
2022/11/19 11:08:52;;;;;;;8.40;6.20;;;2.40;99.90;;;;;;5110829;28;20484;-63
2022/11/19 11:14:50;;;;;;;11.60;6.57;;;2.40;99.90;;;;;;5111093;28;20039;-62
2022/11/19 11:16:55;;;;;;;9.82;6.10;;;2.50;99.90;;;;;;5091823;28;20205;-63
2022/11/19 11:19:21;;;;;;;7.90;5.65;;;2.50;99.90;;;;;;5095076;27;20548;-63
2022/11/19 11:21:52;;;;;;;9.50;5.68;;;2.50;99.90;;;;;;5099711;28;20044;-63
2022/11/19 11:24:18;;;;;;;9.53;6.50;;;2.50;99.90;;;;;;5087469;28;20048;-63
2022/11/19 11:26:43;;;;;;;8.57;5.60;;;2.50;99.90;;;;;;5102977;28;20036;-62
2022/11/19 11:29:12;;;;;;;7.88;5.63;;;2.50;99.90;;;;;;5079440;28;20062;-63
2022/11/19 11:31:46;;;;;;;7.75;6.10;;;2.60;99.90;;;;;;5110708;27;20406;-63
2022/11/19 11:34:30;;;;;;;7.85;5.55;;;2.60;99.90;;;;;;5093620;28;20051;-63
2022/11/19 11:36:56;;;;;;;7.68;5.60;;;2.70;99.90;;;;;;5109278;28;20047;-62
2022/11/19 11:39:28;;;;;;;7.25;5.25;;;2.80;99.90;;;;;;5109485;28;20122;-62
2022/11/19 11:41:55;;;;;;;9.25;6.65;;;2.80;99.90;;;;;;5074039;28;20537;-63
2022/11/19 11:44:30;;;;;;;9.75;6.20;;;2.90;99.90;;;;;;5099141;27;20147;-63
2022/11/19 11:47:13;;;;;;;11.10;6.28;;;2.90;99.90;;;;;;5083293;28;20484;-63
2022/11/19 11:49:44;;;;;;;11.63;6.68;;;3.00;99.90;;;;;;5111875;27;20043;-63
2022/11/19 11:52:10;;;;;;;9.30;6.07;;;2.90;99.90;;;;;;5094038;28;20036;-63
2022/11/19 11:54:37;;;;;;;10.20;6.35;;;3.00;99.90;;;;;;5106838;28;20032;-63
2022/11/19 11:57:18;;;;;;;9.13;6.75;;;3.00;99.90;;;;;;5103793;28;20403;-63
2022/11/19 11:59:44;;;;;;;8.40;5.57;;;3.10;99.90;;;;;;5110342;27;20481;-63
2022/11/19 12:02:31;;;;;;;8.88;5.70;;;3.00;99.90;;;;;;5106702;28;20072;-63
2022/11/19 12:05:05;;;;;;;10.68;6.70;;;3.10;99.90;;;;;;5103156;28;20485;-63
2022/11/19 12:07:39;;;;;;;9.45;5.43;;;3.10;99.90;;;;;;5095800;28;20040;-63
2022/11/19 12:10:38;;;;;;;9.40;5.82;;;3.10;99.90;;;;;;5090616;28;20508;-63
2022/11/19 12:13:35;;;;;;;6.95;5.30;;;3.10;99.90;;;;;;5099408;28;20078;-63
2022/11/19 12:16:21;;;;;;;6.78;4.85;;;3.20;99.90;;;;;;5103728;28;20046;-63
2022/11/19 12:19:15;;;;;;;6.75;5.00;;;3.20;99.90;;;;;;5100112;28;20092;-63
2022/11/19 12:22:02;;;;;;;8.13;5.78;;;3.20;99.90;;;;;;5092654;28;20051;-63
2022/11/19 12:24:48;;;;;;;7.10;5.13;;;3.20;99.90;;;;;;5108275;28;20032;-63
2022/11/19 12:27:49;;;;;;;7.82;4.85;;;3.30;99.90;;;;;;5115608;28;20059;-63
2022/11/19 12:30:19;;;;;;;8.75;5.80;;;3.30;99.90;;;;;;5023011;28;20048;-63
2022/11/19 12:33:03;;;;;;;8.88;5.47;;;3.30;99.90;;;;;;5114191;28;20497;-63
2022/11/19 12:35:50;;;;;;;7.25;5.57;;;3.30;99.90;;;;;;5115672;28;20374;-63
2022/11/19 12:38:22;;;;;;;9.63;6.07;;;3.40;99.90;;;;;;5113920;28;20040;-63
2022/11/19 12:41:02;;;;;;;9.13;6.13;;;3.50;99.90;;;;;;5114031;28;20340;-63
2022/11/19 12:43:36;;;;;;;10.15;6.10;;;3.60;99.90;;;;;;5115371;28;20071;-63
2022/11/19 12:46:19;;;;;;;8.02;5.78;;;3.60;99.90;;;;;;5111735;28;20028;-63
2022/11/19 12:49:13;;;;;;;8.40;6.28;;;3.60;99.90;;;;;;5108009;28;20036;-63
2022/11/19 12:51:42;;;;;;;9.27;6.45;;;3.80;99.90;;;;;;5113632;28;20115;-63
2022/11/19 12:54:27;;;;;;;8.52;5.93;;;3.80;99.90;;;;;;5115658;28;20047;-63
2022/11/19 12:57:28;;;;;;;8.98;6.20;;;4.00;99.90;;;;;;5115250;28;20063;-63
2022/11/19 13:00:09;;;;;;;7.68;5.40;;;4.10;99.90;;;;;;5106949;28;20096;-63
2022/11/19 13:02:42;;;;;;;9.25;5.93;;;4.30;99.90;;;;;;5112205;28;20105;-63
2022/11/19 13:05:21;;;;;;;7.10;5.35;;;4.30;99.90;;;;;;5110093;28;20055;-63
2022/11/19 13:07:54;;;;;;;8.55;5.72;;;4.40;99.90;;;;;;5100288;28;20093;-64
2022/11/19 13:10:24;;;;;;;10.55;6.32;;;4.50;99.90;;;;;;5105001;27;20063;-63
2022/11/19 13:12:54;;;;;;;8.88;5.55;;;4.70;99.90;;;;;;5106683;28;20036;-64
2022/11/19 13:15:32;;;;;;;9.07;6.20;;;4.80;99.90;;;;;;5105439;27;20044;-63
2022/11/19 13:18:02;;;;;;;8.90;6.72;;;4.90;99.90;;;;;;5103692;28;20046;-63
2022/11/19 13:20:48;;;;;;;8.48;6.28;;;4.90;99.90;;;;;;5112264;27;20492;-63
2022/11/19 13:23:27;;;;;;;9.13;5.85;;;5.10;99.90;;;;;;5111651;28;20047;-63
2022/11/19 13:26:04;;;;;;;8.77;5.55;;;5.20;99.90;;;;;;5088008;28;20530;-63